sensor_id;sensor_type;location;lat;lon;timestamp;P1;durP1;ratioP1;P2;durP2;ratioP2
16450;SDS011;12243;42.708;23.310;2023-08-06T00:01:00;8.60;;;4.03;;
16450;SDS011;12243;42.708;23.310;2023-08-06T00:03:27;3.90;;;3.50;;
16450;SDS011;12243;42.708;23.310;2023-08-06T00:05:53;5.30;;;3.38;;
16450;SDS011;12243;42.708;23.310;2023-08-06T00:08:20;3.38;;;3.17;;
16450;SDS011;12243;42.708;23.310;2023-08-06T00:10:47;3.50;;;3.15;;
16450;SDS011;12243;42.708;23.310;2023-08-06T00:13:14;4.35;;;3.50;;
16450;SDS011;12243;42.708;23.310;2023-08-06T00:15:41;4.70;;;3.42;;
16450;SDS011;12243;42.708;23.310;2023-08-06T00:18:09;6.15;;;3.95;;
16450;SDS011;12243;42.708;23.310;2023-08-06T00:20:38;3.63;;;3.33;;
16450;SDS011;12243;42.708;23.310;2023-08-06T00:23:05;3.58;;;3.30;;
16450;SDS011;12243;42.708;23.310;2023-08-06T00:25:32;5.95;;;3.80;;
16450;SDS011;12243;42.708;23.310;2023-08-06T00:27:59;4.32;;;3.53;;
16450;SDS011;12243;42.708;23.310;2023-08-06T00:30:26;5.85;;;3.65;;
16450;SDS011;12243;42.708;23.310;2023-08-06T00:32:53;3.78;;;3.45;;
16450;SDS011;12243;42.708;23.310;2023-08-06T00:35:22;3.97;;;3.60;;
16450;SDS011;12243;42.708;23.310;2023-08-06T00:37:49;4.40;;;3.50;;
16450;SDS011;12243;42.708;23.310;2023-08-06T00:40:16;5.72;;;3.45;;
16450;SDS011;12243;42.708;23.310;2023-08-06T00:42:46;3.42;;;3.13;;
16450;SDS011;12243;42.708;23.310;2023-08-06T00:45:13;5.47;;;3.20;;
16450;SDS011;12243;42.708;23.310;2023-08-06T00:47:40;4.25;;;3.78;;
16450;SDS011;12243;42.708;23.310;2023-08-06T00:50:08;4.03;;;3.53;;
16450;SDS011;12243;42.708;23.310;2023-08-06T00:52:36;4.88;;;3.47;;
16450;SDS011;12243;42.708;23.310;2023-08-06T00:55:04;4.22;;;3.90;;
16450;SDS011;12243;42.708;23.310;2023-08-06T00:57:32;4.28;;;3.88;;
16450;SDS011;12243;42.708;23.310;2023-08-06T00:59:59;3.80;;;3.50;;
16450;SDS011;12243;42.708;23.310;2023-08-06T01:02:26;3.72;;;3.42;;
16450;SDS011;12243;42.708;23.310;2023-08-06T01:04:53;4.00;;;3.40;;
16450;SDS011;12243;42.708;23.310;2023-08-06T01:07:22;3.85;;;3.55;;
16450;SDS011;12243;42.708;23.310;2023-08-06T01:13:01;3.85;;;3.30;;
16450;SDS011;12243;42.708;23.310;2023-08-06T01:15:35;4.25;;;3.58;;
16450;SDS011;12243;42.708;23.310;2023-08-06T01:18:07;3.35;;;3.05;;
16450;SDS011;12243;42.708;23.310;2023-08-06T01:20:36;3.30;;;3.15;;
16450;SDS011;12243;42.708;23.310;2023-08-06T01:23:03;3.55;;;3.35;;
16450;SDS011;12243;42.708;23.310;2023-08-06T01:25:33;3.67;;;3.35;;
16450;SDS011;12243;42.708;23.310;2023-08-06T01:28:03;3.85;;;3.30;;
16450;SDS011;12243;42.708;23.310;2023-08-06T01:30:38;4.00;;;3.70;;
16450;SDS011;12243;42.708;23.310;2023-08-06T01:33:08;4.30;;;4.00;;
16450;SDS011;12243;42.708;23.310;2023-08-06T01:35:42;3.90;;;3.60;;
16450;SDS011;12243;42.708;23.310;2023-08-06T01:38:09;4.45;;;4.00;;
16450;SDS011;12243;42.708;23.310;2023-08-06T01:40:36;4.32;;;3.85;;
16450;SDS011;12243;42.708;23.310;2023-08-06T01:43:03;4.40;;;4.00;;
16450;SDS011;12243;42.708;23.310;2023-08-06T01:45:30;5.75;;;4.28;;
16450;SDS011;12243;42.708;23.310;2023-08-06T01:47:56;4.65;;;4.25;;
16450;SDS011;12243;42.708;23.310;2023-08-06T01:50:24;4.63;;;4.22;;
16450;SDS011;12243;42.708;23.310;2023-08-06T01:52:52;4.90;;;4.40;;
16450;SDS011;12243;42.708;23.310;2023-08-06T01:55:19;4.97;;;4.53;;
16450;SDS011;12243;42.708;23.310;2023-08-06T01:57:46;5.05;;;4.00;;
16450;SDS011;12243;42.708;23.310;2023-08-06T02:00:13;4.00;;;3.80;;
16450;SDS011;12243;42.708;23.310;2023-08-06T02:02:40;4.55;;;4.15;;
16450;SDS011;12243;42.708;23.310;2023-08-06T02:05:07;4.63;;;4.30;;
16450;SDS011;12243;42.708;23.310;2023-08-06T02:07:33;4.18;;;3.88;;
16450;SDS011;12243;42.708;23.310;2023-08-06T02:10:03;4.30;;;3.90;;
16450;SDS011;12243;42.708;23.310;2023-08-06T02:12:31;3.45;;;3.25;;
16450;SDS011;12243;42.708;23.310;2023-08-06T02:14:58;3.83;;;3.53;;
16450;SDS011;12243;42.708;23.310;2023-08-06T02:17:25;4.03;;;3.70;;
16450;SDS011;12243;42.708;23.310;2023-08-06T02:19:51;4.55;;;3.92;;
16450;SDS011;12243;42.708;23.310;2023-08-06T02:22:18;4.75;;;4.30;;
16450;SDS011;12243;42.708;23.310;2023-08-06T02:24:45;4.53;;;4.13;;
16450;SDS011;12243;42.708;23.310;2023-08-06T02:27:16;10.15;;;4.40;;
16450;SDS011;12243;42.708;23.310;2023-08-06T02:29:43;7.15;;;4.20;;
16450;SDS011;12243;42.708;23.310;2023-08-06T02:32:11;9.80;;;5.07;;
16450;SDS011;12243;42.708;23.310;2023-08-06T02:34:38;4.32;;;3.92;;
16450;SDS011;12243;42.708;23.310;2023-08-06T02:37:05;4.38;;;4.07;;
16450;SDS011;12243;42.708;23.310;2023-08-06T02:39:32;4.50;;;3.97;;
16450;SDS011;12243;42.708;23.310;2023-08-06T02:42:01;3.85;;;3.60;;
16450;SDS011;12243;42.708;23.310;2023-08-06T02:44:32;4.45;;;4.07;;
16450;SDS011;12243;42.708;23.310;2023-08-06T02:46:59;6.85;;;4.55;;
16450;SDS011;12243;42.708;23.310;2023-08-06T02:49:26;6.03;;;4.50;;
16450;SDS011;12243;42.708;23.310;2023-08-06T02:51:53;5.32;;;4.40;;
16450;SDS011;12243;42.708;23.310;2023-08-06T02:54:19;4.75;;;4.35;;
16450;SDS011;12243;42.708;23.310;2023-08-06T02:56:46;5.70;;;3.88;;
16450;SDS011;12243;42.708;23.310;2023-08-06T02:59:26;4.25;;;3.50;;
16450;SDS011;12243;42.708;23.310;2023-08-06T03:02:05;3.45;;;3.13;;
16450;SDS011;12243;42.708;23.310;2023-08-06T03:04:44;3.83;;;3.53;;
16450;SDS011;12243;42.708;23.310;2023-08-06T03:07:12;3.75;;;3.45;;
16450;SDS011;12243;42.708;23.310;2023-08-06T03:09:48;3.58;;;3.22;;
16450;SDS011;12243;42.708;23.310;2023-08-06T03:12:15;4.80;;;4.40;;
16450;SDS011;12243;42.708;23.310;2023-08-06T03:14:42;4.40;;;4.00;;
16450;SDS011;12243;42.708;23.310;2023-08-06T03:17:10;3.88;;;3.53;;
16450;SDS011;12243;42.708;23.310;2023-08-06T03:19:37;3.70;;;3.47;;
16450;SDS011;12243;42.708;23.310;2023-08-06T03:22:05;5.30;;;4.30;;
16450;SDS011;12243;42.708;23.310;2023-08-06T03:24:34;4.53;;;4.13;;
16450;SDS011;12243;42.708;23.310;2023-08-06T03:27:01;5.32;;;4.18;;
16450;SDS011;12243;42.708;23.310;2023-08-06T03:29:29;5.05;;;4.45;;
16450;SDS011;12243;42.708;23.310;2023-08-06T03:32:00;6.25;;;3.85;;
16450;SDS011;12243;42.708;23.310;2023-08-06T03:34:28;3.65;;;3.45;;
16450;SDS011;12243;42.708;23.310;2023-08-06T03:36:56;4.45;;;4.15;;
16450;SDS011;12243;42.708;23.310;2023-08-06T03:39:23;4.40;;;3.92;;
16450;SDS011;12243;42.708;23.310;2023-08-06T03:41:50;4.10;;;3.47;;
16450;SDS011;12243;42.708;23.310;2023-08-06T03:44:17;3.20;;;3.00;;
16450;SDS011;12243;42.708;23.310;2023-08-06T03:46:45;3.22;;;3.03;;
16450;SDS011;12243;42.708;23.310;2023-08-06T03:49:12;3.22;;;3.13;;
16450;SDS011;12243;42.708;23.310;2023-08-06T03:51:41;3.28;;;3.08;;
16450;SDS011;12243;42.708;23.310;2023-08-06T03:54:09;3.08;;;2.88;;
16450;SDS011;12243;42.708;23.310;2023-08-06T03:56:36;3.38;;;3.15;;
16450;SDS011;12243;42.708;23.310;2023-08-06T03:59:04;3.15;;;2.95;;
16450;SDS011;12243;42.708;23.310;2023-08-06T04:01:31;3.25;;;3.05;;
16450;SDS011;12243;42.708;23.310;2023-08-06T04:03:58;3.50;;;3.20;;
16450;SDS011;12243;42.708;23.310;2023-08-06T04:06:25;3.50;;;3.20;;
16450;SDS011;12243;42.708;23.310;2023-08-06T04:08:53;3.70;;;3.45;;
16450;SDS011;12243;42.708;23.310;2023-08-06T04:11:20;3.92;;;3.63;;
16450;SDS011;12243;42.708;23.310;2023-08-06T04:13:49;3.83;;;3.20;;
16450;SDS011;12243;42.708;23.310;2023-08-06T04:16:16;3.95;;;3.58;;
16450;SDS011;12243;42.708;23.310;2023-08-06T04:18:43;4.22;;;3.90;;
16450;SDS011;12243;42.708;23.310;2023-08-06T04:21:12;3.78;;;3.58;;
16450;SDS011;12243;42.708;23.310;2023-08-06T04:23:39;4.40;;;3.58;;
16450;SDS011;12243;42.708;23.310;2023-08-06T04:26:09;3.20;;;3.00;;
16450;SDS011;12243;42.708;23.310;2023-08-06T04:28:37;4.25;;;3.80;;
16450;SDS011;12243;42.708;23.310;2023-08-06T04:31:04;3.90;;;3.63;;
16450;SDS011;12243;42.708;23.310;2023-08-06T04:33:32;3.47;;;3.13;;
16450;SDS011;12243;42.708;23.310;2023-08-06T04:36:05;4.10;;;3.80;;
16450;SDS011;12243;42.708;23.310;2023-08-06T04:38:33;4.32;;;4.03;;
16450;SDS011;12243;42.708;23.310;2023-08-06T04:41:01;4.75;;;4.43;;
16450;SDS011;12243;42.708;23.310;2023-08-06T04:43:30;4.50;;;4.10;;
16450;SDS011;12243;42.708;23.310;2023-08-06T04:45:56;4.65;;;4.30;;
16450;SDS011;12243;42.708;23.310;2023-08-06T04:48:23;5.75;;;4.88;;
16450;SDS011;12243;42.708;23.310;2023-08-06T04:50:50;4.22;;;4.03;;
16450;SDS011;12243;42.708;23.310;2023-08-06T04:53:17;4.45;;;3.80;;
16450;SDS011;12243;42.708;23.310;2023-08-06T04:55:44;4.55;;;3.63;;
16450;SDS011;12243;42.708;23.310;2023-08-06T04:58:11;4.60;;;4.20;;
16450;SDS011;12243;42.708;23.310;2023-08-06T05:00:40;3.90;;;3.60;;
16450;SDS011;12243;42.708;23.310;2023-08-06T05:03:07;3.63;;;3.33;;
16450;SDS011;12243;42.708;23.310;2023-08-06T05:05:34;3.33;;;3.13;;
16450;SDS011;12243;42.708;23.310;2023-08-06T05:08:01;3.38;;;3.17;;
16450;SDS011;12243;42.708;23.310;2023-08-06T05:10:28;3.28;;;3.08;;
16450;SDS011;12243;42.708;23.310;2023-08-06T05:12:54;3.20;;;3.00;;
16450;SDS011;12243;42.708;23.310;2023-08-06T05:15:22;3.33;;;3.13;;
16450;SDS011;12243;42.708;23.310;2023-08-06T05:17:51;3.35;;;3.15;;
16450;SDS011;12243;42.708;23.310;2023-08-06T05:20:19;3.17;;;2.97;;
16450;SDS011;12243;42.708;23.310;2023-08-06T05:22:46;3.38;;;3.13;;
16450;SDS011;12243;42.708;23.310;2023-08-06T05:25:13;4.20;;;3.97;;
16450;SDS011;12243;42.708;23.310;2023-08-06T05:27:41;4.78;;;4.28;;
16450;SDS011;12243;42.708;23.310;2023-08-06T05:30:08;4.00;;;3.80;;
16450;SDS011;12243;42.708;23.310;2023-08-06T05:32:36;4.47;;;4.07;;
16450;SDS011;12243;42.708;23.310;2023-08-06T05:35:04;4.22;;;3.92;;
16450;SDS011;12243;42.708;23.310;2023-08-06T05:37:32;4.60;;;4.30;;
16450;SDS011;12243;42.708;23.310;2023-08-06T05:39:59;5.47;;;5.00;;
16450;SDS011;12243;42.708;23.310;2023-08-06T05:42:26;10.77;;;6.80;;
16450;SDS011;12243;42.708;23.310;2023-08-06T05:44:53;5.90;;;4.88;;
16450;SDS011;12243;42.708;23.310;2023-08-06T05:47:20;4.32;;;4.13;;
16450;SDS011;12243;42.708;23.310;2023-08-06T05:49:47;4.22;;;4.03;;
16450;SDS011;12243;42.708;23.310;2023-08-06T05:52:15;4.22;;;3.92;;
16450;SDS011;12243;42.708;23.310;2023-08-06T05:54:42;4.20;;;3.90;;
16450;SDS011;12243;42.708;23.310;2023-08-06T05:57:09;4.13;;;3.83;;
16450;SDS011;12243;42.708;23.310;2023-08-06T05:59:36;3.03;;;2.85;;
16450;SDS011;12243;42.708;23.310;2023-08-06T06:02:03;2.35;;;2.25;;
16450;SDS011;12243;42.708;23.310;2023-08-06T06:04:30;2.15;;;2.03;;
16450;SDS011;12243;42.708;23.310;2023-08-06T06:06:58;2.63;;;2.35;;
16450;SDS011;12243;42.708;23.310;2023-08-06T06:09:26;1.92;;;1.83;;
16450;SDS011;12243;42.708;23.310;2023-08-06T06:11:53;1.90;;;1.90;;
16450;SDS011;12243;42.708;23.310;2023-08-06T06:14:20;2.00;;;1.95;;
16450;SDS011;12243;42.708;23.310;2023-08-06T06:16:47;2.20;;;2.10;;
16450;SDS011;12243;42.708;23.310;2023-08-06T06:19:14;2.00;;;1.90;;
16450;SDS011;12243;42.708;23.310;2023-08-06T06:21:41;2.60;;;2.00;;
16450;SDS011;12243;42.708;23.310;2023-08-06T06:24:07;2.50;;;2.40;;
16450;SDS011;12243;42.708;23.310;2023-08-06T06:26:36;2.47;;;2.28;;
16450;SDS011;12243;42.708;23.310;2023-08-06T06:29:03;1.75;;;1.75;;
16450;SDS011;12243;42.708;23.310;2023-08-06T06:31:29;2.22;;;2.10;;
16450;SDS011;12243;42.708;23.310;2023-08-06T06:33:56;1.90;;;1.80;;
16450;SDS011;12243;42.708;23.310;2023-08-06T06:36:23;1.38;;;1.38;;
16450;SDS011;12243;42.708;23.310;2023-08-06T06:38:50;2.35;;;1.45;;
16450;SDS011;12243;42.708;23.310;2023-08-06T06:41:17;2.15;;;2.05;;
16450;SDS011;12243;42.708;23.310;2023-08-06T06:43:45;2.67;;;2.47;;
16450;SDS011;12243;42.708;23.310;2023-08-06T06:46:12;2.90;;;2.70;;
16450;SDS011;12243;42.708;23.310;2023-08-06T06:48:39;2.45;;;2.30;;
16450;SDS011;12243;42.708;23.310;2023-08-06T06:51:06;2.38;;;2.28;;
16450;SDS011;12243;42.708;23.310;2023-08-06T06:53:33;2.55;;;2.00;;
16450;SDS011;12243;42.708;23.310;2023-08-06T06:56:01;2.53;;;2.30;;
16450;SDS011;12243;42.708;23.310;2023-08-06T06:58:29;2.50;;;2.30;;
16450;SDS011;12243;42.708;23.310;2023-08-06T07:00:57;2.15;;;2.05;;
16450;SDS011;12243;42.708;23.310;2023-08-06T07:03:24;2.00;;;1.90;;
16450;SDS011;12243;42.708;23.310;2023-08-06T07:05:51;4.95;;;1.90;;
16450;SDS011;12243;42.708;23.310;2023-08-06T07:08:18;2.40;;;2.05;;
16450;SDS011;12243;42.708;23.310;2023-08-06T07:10:45;3.35;;;2.30;;
16450;SDS011;12243;42.708;23.310;2023-08-06T07:13:12;2.15;;;2.08;;
16450;SDS011;12243;42.708;23.310;2023-08-06T07:15:39;2.75;;;2.55;;
16450;SDS011;12243;42.708;23.310;2023-08-06T07:18:08;2.28;;;2.05;;
16450;SDS011;12243;42.708;23.310;2023-08-06T07:20:35;2.70;;;2.53;;
16450;SDS011;12243;42.708;23.310;2023-08-06T07:23:02;2.20;;;2.03;;
16450;SDS011;12243;42.708;23.310;2023-08-06T07:25:28;2.30;;;2.20;;
16450;SDS011;12243;42.708;23.310;2023-08-06T07:27:55;1.98;;;1.90;;
16450;SDS011;12243;42.708;23.310;2023-08-06T07:30:23;2.28;;;2.10;;
16450;SDS011;12243;42.708;23.310;2023-08-06T07:32:50;2.00;;;1.90;;
16450;SDS011;12243;42.708;23.310;2023-08-06T07:35:18;2.10;;;2.00;;
16450;SDS011;12243;42.708;23.310;2023-08-06T07:37:45;2.78;;;2.67;;
16450;SDS011;12243;42.708;23.310;2023-08-06T07:40:11;4.05;;;2.47;;
16450;SDS011;12243;42.708;23.310;2023-08-06T07:42:39;2.22;;;2.13;;
16450;SDS011;12243;42.708;23.310;2023-08-06T07:45:06;2.88;;;2.22;;
16450;SDS011;12243;42.708;23.310;2023-08-06T07:47:34;2.40;;;2.30;;
16450;SDS011;12243;42.708;23.310;2023-08-06T07:50:01;2.05;;;2.00;;
16450;SDS011;12243;42.708;23.310;2023-08-06T07:52:30;2.22;;;2.13;;
16450;SDS011;12243;42.708;23.310;2023-08-06T07:54:57;2.30;;;2.20;;
16450;SDS011;12243;42.708;23.310;2023-08-06T07:57:23;3.97;;;2.70;;
16450;SDS011;12243;42.708;23.310;2023-08-06T07:59:51;2.70;;;2.20;;
16450;SDS011;12243;42.708;23.310;2023-08-06T08:02:19;2.80;;;2.60;;
16450;SDS011;12243;42.708;23.310;2023-08-06T08:04:46;2.38;;;2.17;;
16450;SDS011;12243;42.708;23.310;2023-08-06T08:07:13;2.80;;;2.30;;
16450;SDS011;12243;42.708;23.310;2023-08-06T08:09:42;2.88;;;2.38;;
16450;SDS011;12243;42.708;23.310;2023-08-06T08:12:08;2.70;;;2.50;;
16450;SDS011;12243;42.708;23.310;2023-08-06T08:14:36;2.30;;;2.10;;
16450;SDS011;12243;42.708;23.310;2023-08-06T08:17:03;2.35;;;2.25;;
16450;SDS011;12243;42.708;23.310;2023-08-06T08:19:31;2.58;;;2.47;;
16450;SDS011;12243;42.708;23.310;2023-08-06T08:21:58;2.38;;;2.17;;
16450;SDS011;12243;42.708;23.310;2023-08-06T08:24:25;2.47;;;2.35;;
16450;SDS011;12243;42.708;23.310;2023-08-06T08:26:53;2.88;;;2.53;;
16450;SDS011;12243;42.708;23.310;2023-08-06T08:29:20;2.63;;;2.35;;
16450;SDS011;12243;42.708;23.310;2023-08-06T08:31:47;2.45;;;2.35;;
16450;SDS011;12243;42.708;23.310;2023-08-06T08:34:15;2.60;;;2.40;;
16450;SDS011;12243;42.708;23.310;2023-08-06T08:36:42;2.60;;;2.50;;
16450;SDS011;12243;42.708;23.310;2023-08-06T08:39:12;2.40;;;2.30;;
16450;SDS011;12243;42.708;23.310;2023-08-06T08:41:39;2.33;;;2.22;;
16450;SDS011;12243;42.708;23.310;2023-08-06T08:44:08;2.80;;;2.70;;
16450;SDS011;12243;42.708;23.310;2023-08-06T08:46:36;2.30;;;2.20;;
16450;SDS011;12243;42.708;23.310;2023-08-06T08:49:07;2.60;;;2.50;;
16450;SDS011;12243;42.708;23.310;2023-08-06T08:51:35;3.28;;;2.30;;
16450;SDS011;12243;42.708;23.310;2023-08-06T08:54:02;2.75;;;2.60;;
16450;SDS011;12243;42.708;23.310;2023-08-06T08:56:31;2.72;;;2.63;;
16450;SDS011;12243;42.708;23.310;2023-08-06T08:58:58;2.38;;;2.28;;
16450;SDS011;12243;42.708;23.310;2023-08-06T09:01:26;2.60;;;2.40;;
16450;SDS011;12243;42.708;23.310;2023-08-06T09:03:55;2.13;;;2.03;;
16450;SDS011;12243;42.708;23.310;2023-08-06T09:06:23;2.70;;;2.50;;
16450;SDS011;12243;42.708;23.310;2023-08-06T09:08:54;2.50;;;2.30;;
16450;SDS011;12243;42.708;23.310;2023-08-06T09:11:27;2.40;;;2.30;;
16450;SDS011;12243;42.708;23.310;2023-08-06T09:14:04;2.40;;;2.30;;
16450;SDS011;12243;42.708;23.310;2023-08-06T09:16:35;2.30;;;2.20;;
16450;SDS011;12243;42.708;23.310;2023-08-06T09:19:06;2.15;;;2.08;;
16450;SDS011;12243;42.708;23.310;2023-08-06T09:21:36;2.60;;;2.50;;
16450;SDS011;12243;42.708;23.310;2023-08-06T09:24:06;2.40;;;2.30;;
16450;SDS011;12243;42.708;23.310;2023-08-06T09:26:34;2.58;;;2.40;;
16450;SDS011;12243;42.708;23.310;2023-08-06T09:29:01;1.80;;;1.80;;
16450;SDS011;12243;42.708;23.310;2023-08-06T09:31:32;3.03;;;2.20;;
16450;SDS011;12243;42.708;23.310;2023-08-06T09:34:00;2.40;;;2.30;;
16450;SDS011;12243;42.708;23.310;2023-08-06T09:36:28;2.28;;;2.17;;
16450;SDS011;12243;42.708;23.310;2023-08-06T09:38:55;2.30;;;2.25;;
16450;SDS011;12243;42.708;23.310;2023-08-06T09:41:31;2.40;;;2.30;;
16450;SDS011;12243;42.708;23.310;2023-08-06T09:43:58;2.30;;;2.10;;
16450;SDS011;12243;42.708;23.310;2023-08-06T09:46:25;2.15;;;2.05;;
16450;SDS011;12243;42.708;23.310;2023-08-06T09:48:54;3.10;;;2.13;;
16450;SDS011;12243;42.708;23.310;2023-08-06T09:51:22;2.03;;;2.03;;
16450;SDS011;12243;42.708;23.310;2023-08-06T09:53:49;2.67;;;2.47;;
16450;SDS011;12243;42.708;23.310;2023-08-06T09:56:17;2.50;;;2.30;;
16450;SDS011;12243;42.708;23.310;2023-08-06T09:58:45;1.98;;;1.98;;
16450;SDS011;12243;42.708;23.310;2023-08-06T10:01:15;2.40;;;2.30;;
16450;SDS011;12243;42.708;23.310;2023-08-06T10:03:44;1.95;;;1.95;;
16450;SDS011;12243;42.708;23.310;2023-08-06T10:06:12;2.10;;;2.00;;
16450;SDS011;12243;42.708;23.310;2023-08-06T10:08:41;2.15;;;2.05;;
16450;SDS011;12243;42.708;23.310;2023-08-06T10:11:08;2.10;;;2.00;;
16450;SDS011;12243;42.708;23.310;2023-08-06T10:13:35;2.08;;;2.05;;
16450;SDS011;12243;42.708;23.310;2023-08-06T10:16:04;2.10;;;2.00;;
16450;SDS011;12243;42.708;23.310;2023-08-06T10:18:31;2.10;;;2.00;;
16450;SDS011;12243;42.708;23.310;2023-08-06T10:20:59;2.15;;;2.05;;
16450;SDS011;12243;42.708;23.310;2023-08-06T10:23:32;2.03;;;2.03;;
16450;SDS011;12243;42.708;23.310;2023-08-06T10:26:02;1.98;;;1.98;;
16450;SDS011;12243;42.708;23.310;2023-08-06T10:28:33;2.13;;;2.03;;
16450;SDS011;12243;42.708;23.310;2023-08-06T10:31:01;2.60;;;2.30;;
16450;SDS011;12243;42.708;23.310;2023-08-06T10:33:39;2.13;;;1.90;;
16450;SDS011;12243;42.708;23.310;2023-08-06T10:36:08;2.40;;;2.30;;
16450;SDS011;12243;42.708;23.310;2023-08-06T10:38:36;2.15;;;2.05;;
16450;SDS011;12243;42.708;23.310;2023-08-06T10:41:16;2.55;;;1.90;;
16450;SDS011;12243;42.708;23.310;2023-08-06T10:43:45;2.45;;;2.10;;
16450;SDS011;12243;42.708;23.310;2023-08-06T10:46:21;2.33;;;1.90;;
16450;SDS011;12243;42.708;23.310;2023-08-06T10:48:49;2.33;;;2.17;;
16450;SDS011;12243;42.708;23.310;2023-08-06T10:51:16;2.40;;;2.30;;
16450;SDS011;12243;42.708;23.310;2023-08-06T10:53:43;4.68;;;2.33;;
16450;SDS011;12243;42.708;23.310;2023-08-06T10:56:14;2.88;;;2.25;;
16450;SDS011;12243;42.708;23.310;2023-08-06T10:58:43;3.22;;;2.90;;
16450;SDS011;12243;42.708;23.310;2023-08-06T11:01:11;3.08;;;2.88;;
16450;SDS011;12243;42.708;23.310;2023-08-06T11:03:38;2.72;;;2.53;;
16450;SDS011;12243;42.708;23.310;2023-08-06T11:06:06;2.75;;;2.53;;
16450;SDS011;12243;42.708;23.310;2023-08-06T11:08:34;2.58;;;2.35;;
16450;SDS011;12243;42.708;23.310;2023-08-06T11:11:08;2.80;;;2.70;;
16450;SDS011;12243;42.708;23.310;2023-08-06T11:13:37;2.75;;;2.65;;
16450;SDS011;12243;42.708;23.310;2023-08-06T11:16:04;2.88;;;2.78;;
16450;SDS011;12243;42.708;23.310;2023-08-06T11:18:32;3.58;;;3.40;;
16450;SDS011;12243;42.708;23.310;2023-08-06T11:20:59;3.00;;;2.90;;
16450;SDS011;12243;42.708;23.310;2023-08-06T11:23:26;3.90;;;3.30;;
16450;SDS011;12243;42.708;23.310;2023-08-06T11:25:54;3.58;;;3.28;;
16450;SDS011;12243;42.708;23.310;2023-08-06T11:28:21;3.72;;;3.42;;
16450;SDS011;12243;42.708;23.310;2023-08-06T11:30:50;3.45;;;3.25;;
16450;SDS011;12243;42.708;23.310;2023-08-06T11:33:19;3.15;;;2.90;;
16450;SDS011;12243;42.708;23.310;2023-08-06T11:35:48;3.10;;;2.67;;
16450;SDS011;12243;42.708;23.310;2023-08-06T11:38:15;3.10;;;3.00;;
16450;SDS011;12243;42.708;23.310;2023-08-06T11:40:43;3.05;;;2.75;;
16450;SDS011;12243;42.708;23.310;2023-08-06T11:43:11;2.90;;;2.80;;
16450;SDS011;12243;42.708;23.310;2023-08-06T11:45:41;3.30;;;3.10;;
16450;SDS011;12243;42.708;23.310;2023-08-06T11:48:10;3.10;;;2.90;;
16450;SDS011;12243;42.708;23.310;2023-08-06T11:50:37;2.78;;;2.67;;
16450;SDS011;12243;42.708;23.310;2023-08-06T11:53:05;2.97;;;2.88;;
16450;SDS011;12243;42.708;23.310;2023-08-06T11:55:35;3.05;;;2.85;;
16450;SDS011;12243;42.708;23.310;2023-08-06T11:58:03;3.72;;;3.42;;
16450;SDS011;12243;42.708;23.310;2023-08-06T12:00:30;3.70;;;3.40;;
16450;SDS011;12243;42.708;23.310;2023-08-06T12:02:58;3.20;;;3.00;;
16450;SDS011;12243;42.708;23.310;2023-08-06T12:05:30;3.58;;;3.28;;
16450;SDS011;12243;42.708;23.310;2023-08-06T12:07:58;3.53;;;3.28;;
16450;SDS011;12243;42.708;23.310;2023-08-06T12:10:26;3.95;;;3.65;;
16450;SDS011;12243;42.708;23.310;2023-08-06T12:12:55;3.72;;;3.55;;
16450;SDS011;12243;42.708;23.310;2023-08-06T12:15:22;3.38;;;3.17;;
16450;SDS011;12243;42.708;23.310;2023-08-06T12:17:49;3.05;;;2.95;;
16450;SDS011;12243;42.708;23.310;2023-08-06T12:20:17;3.78;;;3.58;;
16450;SDS011;12243;42.708;23.310;2023-08-06T12:22:45;4.07;;;3.63;;
16450;SDS011;12243;42.708;23.310;2023-08-06T12:25:13;4.13;;;3.92;;
16450;SDS011;12243;42.708;23.310;2023-08-06T12:27:41;4.32;;;4.13;;
16450;SDS011;12243;42.708;23.310;2023-08-06T12:30:08;4.20;;;4.00;;
16450;SDS011;12243;42.708;23.310;2023-08-06T12:32:36;4.68;;;4.32;;
16450;SDS011;12243;42.708;23.310;2023-08-06T12:35:04;4.07;;;3.80;;
16450;SDS011;12243;42.708;23.310;2023-08-06T12:37:32;4.90;;;4.60;;
16450;SDS011;12243;42.708;23.310;2023-08-06T12:40:01;4.70;;;4.40;;
16450;SDS011;12243;42.708;23.310;2023-08-06T12:42:28;4.95;;;4.55;;
16450;SDS011;12243;42.708;23.310;2023-08-06T12:44:55;4.40;;;4.10;;
16450;SDS011;12243;42.708;23.310;2023-08-06T12:47:22;4.72;;;4.32;;
16450;SDS011;12243;42.708;23.310;2023-08-06T12:49:49;4.03;;;3.60;;
16450;SDS011;12243;42.708;23.310;2023-08-06T12:52:16;4.53;;;4.18;;
16450;SDS011;12243;42.708;23.310;2023-08-06T12:54:45;4.45;;;4.15;;
16450;SDS011;12243;42.708;23.310;2023-08-06T12:57:13;4.05;;;3.78;;
16450;SDS011;12243;42.708;23.310;2023-08-06T12:59:40;4.18;;;3.78;;
16450;SDS011;12243;42.708;23.310;2023-08-06T13:02:08;4.15;;;3.83;;
16450;SDS011;12243;42.708;23.310;2023-08-06T13:04:35;4.93;;;4.45;;
16450;SDS011;12243;42.708;23.310;2023-08-06T13:07:02;4.53;;;4.13;;
16450;SDS011;12243;42.708;23.310;2023-08-06T13:09:31;4.45;;;4.07;;
16450;SDS011;12243;42.708;23.310;2023-08-06T13:11:58;3.75;;;3.55;;
16450;SDS011;12243;42.708;23.310;2023-08-06T13:14:31;4.30;;;3.70;;
16450;SDS011;12243;42.708;23.310;2023-08-06T13:16:58;4.05;;;3.75;;
16450;SDS011;12243;42.708;23.310;2023-08-06T13:19:25;3.70;;;3.50;;
16450;SDS011;12243;42.708;23.310;2023-08-06T13:21:59;3.50;;;3.30;;
16450;SDS011;12243;42.708;23.310;2023-08-06T13:24:28;4.07;;;3.67;;
16450;SDS011;12243;42.708;23.310;2023-08-06T13:26:55;3.47;;;3.22;;
16450;SDS011;12243;42.708;23.310;2023-08-06T13:29:22;4.10;;;3.80;;
16450;SDS011;12243;42.708;23.310;2023-08-06T13:31:50;4.95;;;3.28;;
16450;SDS011;12243;42.708;23.310;2023-08-06T13:34:17;4.03;;;3.72;;
16450;SDS011;12243;42.708;23.310;2023-08-06T13:36:44;3.88;;;3.58;;
16450;SDS011;12243;42.708;23.310;2023-08-06T13:39:11;3.80;;;3.60;;
16450;SDS011;12243;42.708;23.310;2023-08-06T13:41:41;4.10;;;3.80;;
16450;SDS011;12243;42.708;23.310;2023-08-06T13:44:08;5.53;;;3.80;;
16450;SDS011;12243;42.708;23.310;2023-08-06T13:46:35;6.15;;;4.15;;
16450;SDS011;12243;42.708;23.310;2023-08-06T13:49:04;4.00;;;3.58;;
16450;SDS011;12243;42.708;23.310;2023-08-06T13:51:30;3.95;;;3.67;;
16450;SDS011;12243;42.708;23.310;2023-08-06T13:53:59;3.60;;;3.30;;
16450;SDS011;12243;42.708;23.310;2023-08-06T13:56:26;4.50;;;3.85;;
16450;SDS011;12243;42.708;23.310;2023-08-06T13:58:54;3.45;;;3.25;;
16450;SDS011;12243;42.708;23.310;2023-08-06T14:01:21;3.85;;;3.55;;
16450;SDS011;12243;42.708;23.310;2023-08-06T14:03:48;3.53;;;3.22;;
16450;SDS011;12243;42.708;23.310;2023-08-06T14:06:16;4.10;;;3.65;;
16450;SDS011;12243;42.708;23.310;2023-08-06T14:08:45;3.25;;;3.00;;
16450;SDS011;12243;42.708;23.310;2023-08-06T14:11:11;3.22;;;3.00;;
16450;SDS011;12243;42.708;23.310;2023-08-06T14:13:38;4.30;;;3.47;;
16450;SDS011;12243;42.708;23.310;2023-08-06T14:16:05;3.67;;;3.17;;
16450;SDS011;12243;42.708;23.310;2023-08-06T14:18:33;3.33;;;3.22;;
16450;SDS011;12243;42.708;23.310;2023-08-06T14:21:03;3.25;;;3.05;;
16450;SDS011;12243;42.708;23.310;2023-08-06T14:23:31;3.30;;;3.10;;
16450;SDS011;12243;42.708;23.310;2023-08-06T14:25:58;3.28;;;3.08;;
16450;SDS011;12243;42.708;23.310;2023-08-06T14:28:25;3.25;;;2.95;;
16450;SDS011;12243;42.708;23.310;2023-08-06T14:30:52;3.35;;;3.13;;
16450;SDS011;12243;42.708;23.310;2023-08-06T14:33:19;3.20;;;3.00;;
16450;SDS011;12243;42.708;23.310;2023-08-06T14:35:45;3.53;;;3.22;;
16450;SDS011;12243;42.708;23.310;2023-08-06T14:38:12;2.70;;;2.60;;
16450;SDS011;12243;42.708;23.310;2023-08-06T14:40:41;3.13;;;2.85;;